sensor_id;sensor_type;location;lat;lon;timestamp;P1;durP1;ratioP1;P2;durP2;ratioP2
19036;SDS011;9651;49.138;8.900;2023-02-18T00:03:28;3.77;;;1.87;;
19036;SDS011;9651;49.138;8.900;2023-02-18T00:07:33;2.50;;;2.00;;
19036;SDS011;9651;49.138;8.900;2023-02-18T00:11:36;2.50;;;2.10;;
19036;SDS011;9651;49.138;8.900;2023-02-18T00:15:39;2.73;;;2.00;;
19036;SDS011;9651;49.138;8.900;2023-02-18T00:19:41;2.30;;;2.10;;
19036;SDS011;9651;49.138;8.900;2023-02-18T00:23:44;2.80;;;2.00;;
19036;SDS011;9651;49.138;8.900;2023-02-18T00:27:46;2.03;;;1.70;;
19036;SDS011;9651;49.138;8.900;2023-02-18T00:31:48;2.20;;;2.00;;
19036;SDS011;9651;49.138;8.900;2023-02-18T00:35:50;2.17;;;1.97;;
19036;SDS011;9651;49.138;8.900;2023-02-18T00:39:53;3.00;;;2.00;;
19036;SDS011;9651;49.138;8.900;2023-02-18T00:43:55;3.50;;;2.00;;
19036;SDS011;9651;49.138;8.900;2023-02-18T00:47:57;1.93;;;1.73;;
19036;SDS011;9651;49.138;8.900;2023-02-18T00:51:59;2.40;;;2.17;;
19036;SDS011;9651;49.138;8.900;2023-02-18T00:56:03;4.63;;;2.57;;
19036;SDS011;9651;49.138;8.900;2023-02-18T01:00:06;2.57;;;2.07;;
19036;SDS011;9651;49.138;8.900;2023-02-18T01:04:09;2.83;;;2.20;;
19036;SDS011;9651;49.138;8.900;2023-02-18T01:08:11;4.17;;;2.27;;
19036;SDS011;9651;49.138;8.900;2023-02-18T01:12:14;3.10;;;2.13;;
19036;SDS011;9651;49.138;8.900;2023-02-18T01:16:16;2.93;;;2.03;;
19036;SDS011;9651;49.138;8.900;2023-02-18T01:20:19;2.90;;;2.37;;
19036;SDS011;9651;49.138;8.900;2023-02-18T01:24:21;2.90;;;2.03;;
19036;SDS011;9651;49.138;8.900;2023-02-18T01:28:25;3.63;;;2.53;;
19036;SDS011;9651;49.138;8.900;2023-02-18T01:32:27;2.90;;;2.37;;
19036;SDS011;9651;49.138;8.900;2023-02-18T01:36:29;2.60;;;2.40;;
19036;SDS011;9651;49.138;8.900;2023-02-18T01:40:31;2.67;;;2.40;;
19036;SDS011;9651;49.138;8.900;2023-02-18T01:44:35;2.87;;;2.40;;
19036;SDS011;9651;49.138;8.900;2023-02-18T01:48:37;3.47;;;2.30;;
19036;SDS011;9651;49.138;8.900;2023-02-18T01:52:42;2.70;;;2.00;;
19036;SDS011;9651;49.138;8.900;2023-02-18T01:56:45;2.43;;;2.20;;
19036;SDS011;9651;49.138;8.900;2023-02-18T02:00:52;2.80;;;2.00;;
19036;SDS011;9651;49.138;8.900;2023-02-18T02:04:54;3.00;;;2.00;;
19036;SDS011;9651;49.138;8.900;2023-02-18T02:08:58;2.80;;;2.50;;
19036;SDS011;9651;49.138;8.900;2023-02-18T02:13:05;2.60;;;2.37;;
19036;SDS011;9651;49.138;8.900;2023-02-18T02:17:19;5.20;;;2.90;;
19036;SDS011;9651;49.138;8.900;2023-02-18T02:30:55;6.43;;;2.80;;
19036;SDS011;9651;49.138;8.900;2023-02-18T02:35:08;3.57;;;2.80;;
19036;SDS011;9651;49.138;8.900;2023-02-18T02:39:18;5.77;;;3.57;;
19036;SDS011;9651;49.138;8.900;2023-02-18T02:43:27;3.60;;;2.80;;
19036;SDS011;9651;49.138;8.900;2023-02-18T02:47:36;3.80;;;3.30;;
19036;SDS011;9651;49.138;8.900;2023-02-18T02:51:45;4.17;;;3.67;;
19036;SDS011;9651;49.138;8.900;2023-02-18T02:55:51;5.03;;;4.13;;
19036;SDS011;9651;49.138;8.900;2023-02-18T02:59:56;5.27;;;4.00;;
19036;SDS011;9651;49.138;8.900;2023-02-18T03:04:21;5.00;;;3.80;;
19036;SDS011;9651;49.138;8.900;2023-02-18T03:08:54;5.67;;;3.97;;
19036;SDS011;9651;49.138;8.900;2023-02-18T03:13:06;6.50;;;4.23;;
19036;SDS011;9651;49.138;8.900;2023-02-18T03:17:18;4.10;;;3.23;;
19036;SDS011;9651;49.138;8.900;2023-02-18T03:21:26;5.03;;;3.53;;
19036;SDS011;9651;49.138;8.900;2023-02-18T03:25:33;4.17;;;3.63;;
19036;SDS011;9651;49.138;8.900;2023-02-18T03:29:37;4.73;;;3.63;;
19036;SDS011;9651;49.138;8.900;2023-02-18T03:33:42;7.10;;;4.17;;
19036;SDS011;9651;49.138;8.900;2023-02-18T03:37:46;6.13;;;3.47;;
19036;SDS011;9651;49.138;8.900;2023-02-18T03:41:53;5.30;;;3.90;;
19036;SDS011;9651;49.138;8.900;2023-02-18T03:45:55;5.10;;;3.53;;
19036;SDS011;9651;49.138;8.900;2023-02-18T03:49:57;5.47;;;4.53;;
19036;SDS011;9651;49.138;8.900;2023-02-18T03:53:59;4.67;;;3.80;;
19036;SDS011;9651;49.138;8.900;2023-02-18T03:58:02;5.03;;;3.70;;
19036;SDS011;9651;49.138;8.900;2023-02-18T04:02:04;5.73;;;3.77;;
19036;SDS011;9651;49.138;8.900;2023-02-18T04:06:06;4.93;;;3.83;;
19036;SDS011;9651;49.138;8.900;2023-02-18T04:10:09;4.50;;;3.57;;
19036;SDS011;9651;49.138;8.900;2023-02-18T04:14:13;6.40;;;4.43;;
19036;SDS011;9651;49.138;8.900;2023-02-18T04:18:15;5.20;;;4.40;;
19036;SDS011;9651;49.138;8.900;2023-02-18T04:22:17;5.07;;;4.23;;
19036;SDS011;9651;49.138;8.900;2023-02-18T04:26:19;6.87;;;3.87;;
19036;SDS011;9651;49.138;8.900;2023-02-18T04:30:23;5.90;;;4.30;;
19036;SDS011;9651;49.138;8.900;2023-02-18T04:34:25;5.00;;;4.00;;
19036;SDS011;9651;49.138;8.900;2023-02-18T04:38:27;5.13;;;4.43;;
19036;SDS011;9651;49.138;8.900;2023-02-18T04:42:29;6.77;;;4.27;;
19036;SDS011;9651;49.138;8.900;2023-02-18T04:46:32;5.27;;;3.70;;
19036;SDS011;9651;49.138;8.900;2023-02-18T04:50:34;4.97;;;3.80;;
19036;SDS011;9651;49.138;8.900;2023-02-18T04:54:36;4.47;;;3.80;;
19036;SDS011;9651;49.138;8.900;2023-02-18T04:58:37;4.23;;;3.30;;
19036;SDS011;9651;49.138;8.900;2023-02-18T05:02:41;3.50;;;3.00;;
19036;SDS011;9651;49.138;8.900;2023-02-18T05:06:43;3.70;;;3.10;;
19036;SDS011;9651;49.138;8.900;2023-02-18T05:10:45;4.07;;;3.53;;
19036;SDS011;9651;49.138;8.900;2023-02-18T05:14:46;3.70;;;3.40;;
19036;SDS011;9651;49.138;8.900;2023-02-18T05:18:50;6.40;;;3.13;;
19036;SDS011;9651;49.138;8.900;2023-02-18T05:22:51;5.00;;;3.10;;
19036;SDS011;9651;49.138;8.900;2023-02-18T05:26:53;4.10;;;3.03;;
19036;SDS011;9651;49.138;8.900;2023-02-18T05:30:55;3.73;;;2.93;;
19036;SDS011;9651;49.138;8.900;2023-02-18T05:34:59;6.70;;;3.00;;
19036;SDS011;9651;49.138;8.900;2023-02-18T05:39:01;5.10;;;3.60;;
19036;SDS011;9651;49.138;8.900;2023-02-18T05:43:03;4.17;;;3.60;;
19036;SDS011;9651;49.138;8.900;2023-02-18T05:47:05;3.50;;;2.93;;
19036;SDS011;9651;49.138;8.900;2023-02-18T05:51:10;3.50;;;2.53;;
19036;SDS011;9651;49.138;8.900;2023-02-18T05:55:12;5.13;;;2.90;;
19036;SDS011;9651;49.138;8.900;2023-02-18T05:59:14;2.83;;;2.27;;
19036;SDS011;9651;49.138;8.900;2023-02-18T06:03:16;3.90;;;3.07;;
19036;SDS011;9651;49.138;8.900;2023-02-18T06:07:19;4.07;;;3.00;;
19036;SDS011;9651;49.138;8.900;2023-02-18T06:11:21;3.87;;;2.83;;
19036;SDS011;9651;49.138;8.900;2023-02-18T06:15:23;4.07;;;2.90;;
19036;SDS011;9651;49.138;8.900;2023-02-18T06:19:25;5.23;;;3.10;;
19036;SDS011;9651;49.138;8.900;2023-02-18T06:23:28;4.50;;;2.93;;
19036;SDS011;9651;49.138;8.900;2023-02-18T06:27:30;3.87;;;3.30;;
19036;SDS011;9651;49.138;8.900;2023-02-18T06:31:32;4.73;;;3.40;;
19036;SDS011;9651;49.138;8.900;2023-02-18T06:35:34;3.70;;;2.87;;
19036;SDS011;9651;49.138;8.900;2023-02-18T06:39:38;4.60;;;3.10;;
19036;SDS011;9651;49.138;8.900;2023-02-18T06:43:40;3.30;;;2.70;;
19036;SDS011;9651;49.138;8.900;2023-02-18T06:47:42;3.80;;;3.00;;
19036;SDS011;9651;49.138;8.900;2023-02-18T06:51:44;3.90;;;2.53;;
19036;SDS011;9651;49.138;8.900;2023-02-18T06:55:47;4.10;;;2.70;;
19036;SDS011;9651;49.138;8.900;2023-02-18T06:59:49;2.97;;;2.53;;
19036;SDS011;9651;49.138;8.900;2023-02-18T07:03:51;3.13;;;2.73;;
19036;SDS011;9651;49.138;8.900;2023-02-18T07:07:53;2.53;;;2.10;;
19036;SDS011;9651;49.138;8.900;2023-02-18T07:11:56;4.90;;;2.63;;
19036;SDS011;9651;49.138;8.900;2023-02-18T07:15:59;2.63;;;2.40;;
19036;SDS011;9651;49.138;8.900;2023-02-18T07:20:00;2.30;;;2.10;;
19036;SDS011;9651;49.138;8.900;2023-02-18T07:24:03;3.40;;;2.57;;
19036;SDS011;9651;49.138;8.900;2023-02-18T07:28:07;2.87;;;2.20;;
19036;SDS011;9651;49.138;8.900;2023-02-18T07:32:10;3.63;;;2.70;;
19036;SDS011;9651;49.138;8.900;2023-02-18T07:36:13;6.40;;;3.73;;
19036;SDS011;9651;49.138;8.900;2023-02-18T07:40:15;3.40;;;2.90;;
19036;SDS011;9651;49.138;8.900;2023-02-18T07:44:20;3.20;;;2.47;;
19036;SDS011;9651;49.138;8.900;2023-02-18T07:48:23;3.30;;;2.33;;
19036;SDS011;9651;49.138;8.900;2023-02-18T07:52:25;3.13;;;2.40;;
19036;SDS011;9651;49.138;8.900;2023-02-18T07:56:27;2.87;;;2.20;;
19036;SDS011;9651;49.138;8.900;2023-02-18T08:00:30;3.70;;;3.13;;
19036;SDS011;9651;49.138;8.900;2023-02-18T08:04:32;2.10;;;1.80;;
19036;SDS011;9651;49.138;8.900;2023-02-18T08:08:34;4.83;;;2.23;;
19036;SDS011;9651;49.138;8.900;2023-02-18T08:12:36;8.10;;;2.43;;
19036;SDS011;9651;49.138;8.900;2023-02-18T08:16:39;3.40;;;2.40;;
19036;SDS011;9651;49.138;8.900;2023-02-18T08:20:41;2.23;;;1.87;;
19036;SDS011;9651;49.138;8.900;2023-02-18T08:24:43;3.47;;;2.60;;
19036;SDS011;9651;49.138;8.900;2023-02-18T08:28:45;3.17;;;2.57;;
19036;SDS011;9651;49.138;8.900;2023-02-18T08:32:49;3.03;;;2.33;;
19036;SDS011;9651;49.138;8.900;2023-02-18T08:36:51;3.40;;;2.50;;
19036;SDS011;9651;49.138;8.900;2023-02-18T08:40:59;2.70;;;2.00;;
19036;SDS011;9651;49.138;8.900;2023-02-18T08:45:02;3.90;;;1.93;;
19036;SDS011;9651;49.138;8.900;2023-02-18T08:49:05;3.73;;;2.17;;
19036;SDS011;9651;49.138;8.900;2023-02-18T08:53:07;2.63;;;1.90;;
19036;SDS011;9651;49.138;8.900;2023-02-18T08:57:09;3.43;;;2.00;;
19036;SDS011;9651;49.138;8.900;2023-02-18T09:01:11;3.27;;;2.27;;
19036;SDS011;9651;49.138;8.900;2023-02-18T09:05:15;2.50;;;2.03;;
19036;SDS011;9651;49.138;8.900;2023-02-18T09:09:17;3.17;;;2.07;;
19036;SDS011;9651;49.138;8.900;2023-02-18T09:13:19;2.53;;;2.23;;
19036;SDS011;9651;49.138;8.900;2023-02-18T09:17:21;3.87;;;1.90;;
19036;SDS011;9651;49.138;8.900;2023-02-18T09:21:25;2.77;;;1.97;;
19036;SDS011;9651;49.138;8.900;2023-02-18T09:25:27;2.60;;;1.90;;
19036;SDS011;9651;49.138;8.900;2023-02-18T09:29:29;2.60;;;1.93;;
19036;SDS011;9651;49.138;8.900;2023-02-18T09:33:33;3.93;;;2.20;;
19036;SDS011;9651;49.138;8.900;2023-02-18T09:37:37;2.43;;;2.03;;
19036;SDS011;9651;49.138;8.900;2023-02-18T09:41:41;3.07;;;1.80;;
19036;SDS011;9651;49.138;8.900;2023-02-18T09:45:44;3.40;;;1.77;;
19036;SDS011;9651;49.138;8.900;2023-02-18T09:49:47;2.77;;;1.60;;
19036;SDS011;9651;49.138;8.900;2023-02-18T09:53:53;3.03;;;1.50;;
19036;SDS011;9651;49.138;8.900;2023-02-18T09:57:56;3.40;;;2.23;;
19036;SDS011;9651;49.138;8.900;2023-02-18T10:02:02;2.90;;;1.90;;
19036;SDS011;9651;49.138;8.900;2023-02-18T10:06:04;3.63;;;2.10;;
19036;SDS011;9651;49.138;8.900;2023-02-18T10:10:15;3.30;;;1.80;;
19036;SDS011;9651;49.138;8.900;2023-02-18T10:14:22;3.97;;;2.33;;
19036;SDS011;9651;49.138;8.900;2023-02-18T10:18:26;3.13;;;2.03;;
19036;SDS011;9651;49.138;8.900;2023-02-18T10:22:29;4.20;;;2.40;;
19036;SDS011;9651;49.138;8.900;2023-02-18T10:26:33;2.60;;;1.90;;
19036;SDS011;9651;49.138;8.900;2023-02-18T10:30:39;2.83;;;1.70;;
19036;SDS011;9651;49.138;8.900;2023-02-18T10:34:44;2.50;;;1.90;;
19036;SDS011;9651;49.138;8.900;2023-02-18T10:38:57;3.60;;;2.40;;
19036;SDS011;9651;49.138;8.900;2023-02-18T10:43:11;2.90;;;2.13;;
19036;SDS011;9651;49.138;8.900;2023-02-18T10:47:26;3.47;;;1.80;;
19036;SDS011;9651;49.138;8.900;2023-02-18T10:51:38;2.57;;;1.83;;
19036;SDS011;9651;49.138;8.900;2023-02-18T10:55:45;2.30;;;2.03;;
19036;SDS011;9651;49.138;8.900;2023-02-18T10:59:59;3.57;;;2.17;;
19036;SDS011;9651;49.138;8.900;2023-02-18T11:04:11;3.80;;;1.57;;
19036;SDS011;9651;49.138;8.900;2023-02-18T11:08:16;3.73;;;1.90;;
19036;SDS011;9651;49.138;8.900;2023-02-18T11:12:21;2.50;;;1.73;;
19036;SDS011;9651;49.138;8.900;2023-02-18T11:16:36;2.67;;;1.57;;
19036;SDS011;9651;49.138;8.900;2023-02-18T11:20:39;1.63;;;1.53;;
19036;SDS011;9651;49.138;8.900;2023-02-18T11:24:42;3.47;;;1.87;;
19036;SDS011;9651;49.138;8.900;2023-02-18T11:28:48;2.23;;;1.80;;
19036;SDS011;9651;49.138;8.900;2023-02-18T11:32:53;2.23;;;2.03;;
19036;SDS011;9651;49.138;8.900;2023-02-18T11:37:07;2.83;;;1.90;;
19036;SDS011;9651;49.138;8.900;2023-02-18T11:41:11;2.27;;;2.03;;
19036;SDS011;9651;49.138;8.900;2023-02-18T11:45:24;3.53;;;1.83;;
19036;SDS011;9651;49.138;8.900;2023-02-18T11:49:29;1.93;;;1.60;;
19036;SDS011;9651;49.138;8.900;2023-02-18T11:53:34;3.10;;;2.20;;
19036;SDS011;9651;49.138;8.900;2023-02-18T11:57:37;3.27;;;2.23;;
19036;SDS011;9651;49.138;8.900;2023-02-18T12:01:42;4.00;;;2.50;;
19036;SDS011;9651;49.138;8.900;2023-02-18T12:05:49;5.07;;;1.90;;
19036;SDS011;9651;49.138;8.900;2023-02-18T12:09:53;2.13;;;1.93;;
19036;SDS011;9651;49.138;8.900;2023-02-18T12:13:58;3.20;;;2.20;;
19036;SDS011;9651;49.138;8.900;2023-02-18T12:18:04;3.20;;;2.33;;
19036;SDS011;9651;49.138;8.900;2023-02-18T12:22:29;6.17;;;2.27;;
19036;SDS011;9651;49.138;8.900;2023-02-18T12:26:44;3.07;;;2.30;;
19036;SDS011;9651;49.138;8.900;2023-02-18T12:35:36;2.50;;;2.23;;
19036;SDS011;9651;49.138;8.900;2023-02-18T12:40:00;2.57;;;2.17;;
19036;SDS011;9651;49.138;8.900;2023-02-18T12:44:16;3.77;;;2.37;;
19036;SDS011;9651;49.138;8.900;2023-02-18T12:48:35;2.00;;;1.80;;
19036;SDS011;9651;49.138;8.900;2023-02-18T12:52:48;3.03;;;2.70;;
19036;SDS011;9651;49.138;8.900;2023-02-18T12:57:20;4.27;;;2.53;;
19036;SDS011;9651;49.138;8.900;2023-02-18T13:01:34;3.20;;;2.67;;
19036;SDS011;9651;49.138;8.900;2023-02-18T13:05:41;3.60;;;2.17;;
19036;SDS011;9651;49.138;8.900;2023-02-18T13:09:53;5.30;;;2.13;;
19036;SDS011;9651;49.138;8.900;2023-02-18T13:14:09;2.73;;;2.43;;
19036;SDS011;9651;49.138;8.900;2023-02-18T13:18:17;2.80;;;2.30;;
19036;SDS011;9651;49.138;8.900;2023-02-18T13:22:23;3.00;;;2.30;;
19036;SDS011;9651;49.138;8.900;2023-02-18T13:26:29;3.35;;;2.50;;
19036;SDS011;9651;49.138;8.900;2023-02-18T13:30:36;3.87;;;2.00;;
19036;SDS011;9651;49.138;8.900;2023-02-18T13:34:44;3.07;;;2.57;;
19036;SDS011;9651;49.138;8.900;2023-02-18T13:38:52;3.43;;;2.20;;
19036;SDS011;9651;49.138;8.900;2023-02-18T13:51:38;3.33;;;1.60;;
19036;SDS011;9651;49.138;8.900;2023-02-18T13:55:45;1.70;;;1.60;;
19036;SDS011;9651;49.138;8.900;2023-02-18T13:59:55;2.47;;;1.43;;
19036;SDS011;9651;49.138;8.900;2023-02-18T14:04:00;3.53;;;1.47;;
19036;SDS011;9651;49.138;8.900;2023-02-18T14:08:05;1.80;;;1.23;;
19036;SDS011;9651;49.138;8.900;2023-02-18T14:12:23;2.40;;;1.70;;
19036;SDS011;9651;49.138;8.900;2023-02-18T14:16:29;3.23;;;1.53;;
19036;SDS011;9651;49.138;8.900;2023-02-18T14:21:19;1.70;;;1.33;;
19036;SDS011;9651;49.138;8.900;2023-02-18T14:25:37;2.23;;;1.83;;
19036;SDS011;9651;49.138;8.900;2023-02-18T14:29:41;5.43;;;1.40;;
19036;SDS011;9651;49.138;8.900;2023-02-18T14:33:45;1.37;;;1.10;;
19036;SDS011;9651;49.138;8.900;2023-02-18T14:38:08;1.43;;;1.23;;
19036;SDS011;9651;49.138;8.900;2023-02-18T14:42:28;3.20;;;1.40;;
19036;SDS011;9651;49.138;8.900;2023-02-18T14:46:43;1.57;;;1.40;;
19036;SDS011;9651;49.138;8.900;2023-02-18T14:50:56;1.70;;;1.37;;
19036;SDS011;9651;49.138;8.900;2023-02-18T14:55:02;2.43;;;1.37;;
19036;SDS011;9651;49.138;8.900;2023-02-18T14:59:05;2.73;;;2.00;;
19036;SDS011;9651;49.138;8.900;2023-02-18T15:03:10;2.67;;;2.20;;
19036;SDS011;9651;49.138;8.900;2023-02-18T15:07:14;2.83;;;2.27;;
19036;SDS011;9651;49.138;8.900;2023-02-18T15:11:21;4.20;;;2.13;;
19036;SDS011;9651;49.138;8.900;2023-02-18T15:15:27;3.27;;;2.30;;
19036;SDS011;9651;49.138;8.900;2023-02-18T15:19:29;2.67;;;1.70;;
19036;SDS011;9651;49.138;8.900;2023-02-18T15:23:38;2.53;;;1.90;;
19036;SDS011;9651;49.138;8.900;2023-02-18T15:27:45;3.03;;;1.80;;
19036;SDS011;9651;49.138;8.900;2023-02-18T15:31:53;2.60;;;1.70;;
19036;SDS011;9651;49.138;8.900;2023-02-18T15:36:00;1.70;;;1.53;;
19036;SDS011;9651;49.138;8.900;2023-02-18T15:40:03;1.90;;;1.50;;
19036;SDS011;9651;49.138;8.900;2023-02-18T15:44:17;2.07;;;1.37;;
19036;SDS011;9651;49.138;8.900;2023-02-18T15:48:24;1.30;;;1.20;;
19036;SDS011;9651;49.138;8.900;2023-02-18T15:52:30;2.23;;;1.47;;
19036;SDS011;9651;49.138;8.900;2023-02-18T15:56:38;4.10;;;1.30;;
19036;SDS011;9651;49.138;8.900;2023-02-18T16:00:48;4.83;;;1.80;;
19036;SDS011;9651;49.138;8.900;2023-02-18T16:04:53;1.73;;;1.33;;
19036;SDS011;9651;49.138;8.900;2023-02-18T16:08:58;4.70;;;1.60;;
19036;SDS011;9651;49.138;8.900;2023-02-18T16:13:03;2.67;;;2.10;;
19036;SDS011;9651;49.138;8.900;2023-02-18T16:17:08;1.73;;;1.37;;
19036;SDS011;9651;49.138;8.900;2023-02-18T16:21:22;1.90;;;1.70;;
19036;SDS011;9651;49.138;8.900;2023-02-18T16:25:32;2.83;;;1.80;;
19036;SDS011;9651;49.138;8.900;2023-02-18T16:29:40;4.13;;;2.17;;
19036;SDS011;9651;49.138;8.900;2023-02-18T16:33:44;2.40;;;1.80;;
19036;SDS011;9651;49.138;8.900;2023-02-18T16:37:45;1.50;;;1.20;;
19036;SDS011;9651;49.138;8.900;2023-02-18T16:41:49;2.20;;;1.90;;
19036;SDS011;9651;49.138;8.900;2023-02-18T16:45:51;3.70;;;3.00;;
19036;SDS011;9651;49.138;8.900;2023-02-18T16:49:57;2.70;;;1.87;;
19036;SDS011;9651;49.138;8.900;2023-02-18T16:53:59;2.80;;;1.97;;
19036;SDS011;9651;49.138;8.900;2023-02-18T16:58:03;4.17;;;2.10;;
19036;SDS011;9651;49.138;8.900;2023-02-18T17:02:05;2.50;;;2.13;;
19036;SDS011;9651;49.138;8.900;2023-02-18T17:06:19;7.03;;;3.33;;
19036;SDS011;9651;49.138;8.900;2023-02-18T17:10:21;6.13;;;3.27;;
19036;SDS011;9651;49.138;8.900;2023-02-18T17:14:23;2.97;;;2.00;;
19036;SDS011;9651;49.138;8.900;2023-02-18T17:18:25;5.10;;;2.67;;
19036;SDS011;9651;49.138;8.900;2023-02-18T17:22:28;3.07;;;1.93;;
19036;SDS011;9651;49.138;8.900;2023-02-18T17:26:30;5.07;;;2.17;;
19036;SDS011;9651;49.138;8.900;2023-02-18T17:30:34;7.83;;;3.20;;
19036;SDS011;9651;49.138;8.900;2023-02-18T17:34:37;3.90;;;2.40;;
19036;SDS011;9651;49.138;8.900;2023-02-18T17:38:41;4.73;;;3.03;;
19036;SDS011;9651;49.138;8.900;2023-02-18T17:42:43;3.93;;;2.50;;
19036;SDS011;9651;49.138;8.900;2023-02-18T17:46:45;3.30;;;2.23;;
19036;SDS011;9651;49.138;8.900;2023-02-18T17:50:48;2.87;;;2.40;;
19036;SDS011;9651;49.138;8.900;2023-02-18T17:54:52;3.53;;;2.43;;
19036;SDS011;9651;49.138;8.900;2023-02-18T17:58:53;3.60;;;2.63;;
19036;SDS011;9651;49.138;8.900;2023-02-18T18:02:55;2.30;;;2.00;;
19036;SDS011;9651;49.138;8.900;2023-02-18T18:06:58;3.10;;;2.73;;
19036;SDS011;9651;49.138;8.900;2023-02-18T18:11:01;3.07;;;2.43;;
19036;SDS011;9651;49.138;8.900;2023-02-18T18:15:11;4.80;;;2.47;;
19036;SDS011;9651;49.138;8.900;2023-02-18T18:19:22;4.03;;;2.30;;
19036;SDS011;9651;49.138;8.900;2023-02-18T18:23:24;4.23;;;2.97;;
19036;SDS011;9651;49.138;8.900;2023-02-18T18:27:29;3.67;;;2.77;;
19036;SDS011;9651;49.138;8.900;2023-02-18T18:31:30;3.13;;;2.43;;
19036;SDS011;9651;49.138;8.900;2023-02-18T18:35:35;2.43;;;2.03;;
19036;SDS011;9651;49.138;8.900;2023-02-18T18:39:37;4.47;;;2.47;;
19036;SDS011;9651;49.138;8.900;2023-02-18T18:43:40;2.90;;;2.60;;
19036;SDS011;9651;49.138;8.900;2023-02-18T18:47:42;2.90;;;2.47;;
19036;SDS011;9651;49.138;8.900;2023-02-18T18:51:44;2.90;;;2.27;;
19036;SDS011;9651;49.138;8.900;2023-02-18T18:55:47;2.40;;;2.20;;
19036;SDS011;9651;49.138;8.900;2023-02-18T18:59:51;3.33;;;2.30;;
19036;SDS011;9651;49.138;8.900;2023-02-18T19:03:53;2.73;;;2.27;;
19036;SDS011;9651;49.138;8.900;2023-02-18T19:07:55;2.97;;;2.00;;
19036;SDS011;9651;49.138;8.900;2023-02-18T19:11:58;2.50;;;2.00;;
19036;SDS011;9651;49.138;8.900;2023-02-18T19:16:02;2.50;;;2.10;;
19036;SDS011;9651;49.138;8.900;2023-02-18T19:20:09;3.07;;;2.03;;
19036;SDS011;9651;49.138;8.900;2023-02-18T19:24:13;4.37;;;2.40;;
19036;SDS011;9651;49.138;8.900;2023-02-18T19:28:15;2.30;;;1.90;;
19036;SDS011;9651;49.138;8.900;2023-02-18T19:32:18;3.23;;;2.23;;
19036;SDS011;9651;49.138;8.900;2023-02-18T19:36:20;2.90;;;2.53;;
19036;SDS011;9651;49.138;8.900;2023-02-18T19:40:23;4.43;;;2.93;;
19036;SDS011;9651;49.138;8.900;2023-02-18T19:44:30;11.07;;;6.43;;
19036;SDS011;9651;49.138;8.900;2023-02-18T19:48:34;4.40;;;3.50;;
19036;SDS011;9651;49.138;8.900;2023-02-18T19:52:36;3.97;;;2.73;;
19036;SDS011;9651;49.138;8.900;2023-02-18T19:56:38;3.50;;;3.10;;
19036;SDS011;9651;49.138;8.900;2023-02-18T20:00:40;3.73;;;2.47;;
19036;SDS011;9651;49.138;8.900;2023-02-18T20:04:44;3.60;;;2.70;;
19036;SDS011;9651;49.138;8.900;2023-02-18T20:08:46;4.23;;;3.13;;
19036;SDS011;9651;49.138;8.900;2023-02-18T20:12:49;17.53;;;7.73;;
19036;SDS011;9651;49.138;8.900;2023-02-18T20:16:52;4.90;;;3.77;;
19036;SDS011;9651;49.138;8.900;2023-02-18T20:20:59;4.53;;;3.23;;
19036;SDS011;9651;49.138;8.900;2023-02-18T20:25:01;4.47;;;3.50;;
19036;SDS011;9651;49.138;8.900;2023-02-18T20:29:03;5.27;;;3.83;;
19036;SDS011;9651;49.138;8.900;2023-02-18T20:33:05;4.90;;;3.50;;
19036;SDS011;9651;49.138;8.900;2023-02-18T20:37:08;3.90;;;3.27;;
19036;SDS011;9651;49.138;8.900;2023-02-18T20:41:11;4.13;;;3.37;;
19036;SDS011;9651;49.138;8.900;2023-02-18T20:45:16;14.83;;;5.77;;
19036;SDS011;9651;49.138;8.900;2023-02-18T20:49:19;5.00;;;3.83;;
19036;SDS011;9651;49.138;8.900;2023-02-18T20:53:23;10.07;;;6.93;;
19036;SDS011;9651;49.138;8.900;2023-02-18T20:57:25;7.00;;;4.90;;
19036;SDS011;9651;49.138;8.900;2023-02-18T21:01:27;4.90;;;4.20;;
19036;SDS011;9651;49.138;8.900;2023-02-18T21:05:29;5.87;;;4.00;;
19036;SDS011;9651;49.138;8.900;2023-02-18T21:09:32;4.67;;;3.37;;
19036;SDS011;9651;49.138;8.900;2023-02-18T21:13:34;4.30;;;3.67;;
19036;SDS011;9651;49.138;8.900;2023-02-18T21:17:37;7.57;;;4.10;;
19036;SDS011;9651;49.138;8.900;2023-02-18T21:21:39;5.00;;;4.50;;
19036;SDS011;9651;49.138;8.900;2023-02-18T21:25:42;6.77;;;4.60;;
19036;SDS011;9651;49.138;8.900;2023-02-18T21:29:44;4.63;;;4.13;;
19036;SDS011;9651;49.138;8.900;2023-02-18T21:33:46;5.87;;;3.93;;
19036;SDS011;9651;49.138;8.900;2023-02-18T21:37:49;4.73;;;3.97;;
19036;SDS011;9651;49.138;8.900;2023-02-18T21:41:52;4.53;;;3.97;;
19036;SDS011;9651;49.138;8.900;2023-02-18T21:46:03;4.47;;;3.87;;
19036;SDS011;9651;49.138;8.900;2023-02-18T21:50:06;4.67;;;4.13;;
19036;SDS011;9651;49.138;8.900;2023-02-18T21:54:08;5.43;;;4.20;;
19036;SDS011;9651;49.138;8.900;2023-02-18T21:58:12;4.87;;;4.20;;
19036;SDS011;9651;49.138;8.900;2023-02-18T22:02:14;6.97;;;4.67;;
19036;SDS011;9651;49.138;8.900;2023-02-18T22:06:17;5.23;;;4.47;;
19036;SDS011;9651;49.138;8.900;2023-02-18T22:10:19;5.27;;;4.30;;
19036;SDS011;9651;49.138;8.900;2023-02-18T22:14:23;8.63;;;5.10;;
19036;SDS011;9651;49.138;8.900;2023-02-18T22:18:25;5.93;;;4.73;;
19036;SDS011;9651;49.138;8.900;2023-02-18T22:22:26;6.27;;;4.73;;
19036;SDS011;9651;49.138;8.900;2023-02-18T22:26:28;5.70;;;4.37;;
19036;SDS011;9651;49.138;8.900;2023-02-18T22:30:31;6.23;;;4.30;;
19036;SDS011;9651;49.138;8.900;2023-02-18T22:34:33;7.30;;;4.33;;
19036;SDS011;9651;49.138;8.900;2023-02-18T22:38:36;6.43;;;4.37;;
19036;SDS011;9651;49.138;8.900;2023-02-18T22:42:38;6.00;;;4.33;;
19036;SDS011;9651;49.138;8.900;2023-02-18T22:46:41;5.17;;;4.47;;
19036;SDS011;9651;49.138;8.900;2023-02-18T22:50:44;5.60;;;4.63;;
19036;SDS011;9651;49.138;8.900;2023-02-18T22:54:45;5.63;;;4.73;;
19036;SDS011;9651;49.138;8.900;2023-02-18T22:58:48;5.87;;;4.57;;
19036;SDS011;9651;49.138;8.900;2023-02-18T23:02:52;6.57;;;5.03;;
19036;SDS011;9651;49.138;8.900;2023-02-18T23:06:54;6.97;;;5.00;;
19036;SDS011;9651;49.138;8.900;2023-02-18T23:10:59;5.80;;;5.00;;
19036;SDS011;9651;49.138;8.900;2023-02-18T23:15:01;5.20;;;4.40;;
19036;SDS011;9651;49.138;8.900;2023-02-18T23:19:05;8.13;;;5.10;;
19036;SDS011;9651;49.138;8.900;2023-02-18T23:23:06;6.20;;;4.70;;
19036;SDS011;9651;49.138;8.900;2023-02-18T23:27:09;6.00;;;4.47;;
19036;SDS011;9651;49.138;8.900;2023-02-18T23:31:13;6.20;;;4.20;;
19036;SDS011;9651;49.138;8.900;2023-02-18T23:35:17;5.50;;;4.60;;
19036;SDS011;9651;49.138;8.900;2023-02-18T23:39:19;7.10;;;4.97;;
19036;SDS011;9651;49.138;8.900;2023-02-18T23:43:22;5.23;;;4.50;;
19036;SDS011;9651;49.138;8.900;2023-02-18T23:47:24;5.17;;;4.03;;
19036;SDS011;9651;49.138;8.900;2023-02-18T23:51:27;4.33;;;3.93;;
19036;SDS011;9651;49.138;8.900;2023-02-18T23:55:29;5.10;;;4.00;;
19036;SDS011;9651;49.138;8.900;2023-02-18T23:59:31;4.40;;;3.93;;
